Newcastle, Nebraska
Current Conditions -  °F | °C
As of 11:55 AM on Saturday 20 Dec 2014 (Local Time) from KLCG Reporting Station
Overcast Overcast  
Wind Chill: 25°   Ceiling: 500
Heat Index: 33°   Visibility: 7mi
Dew Point: 31°   Wind: 9mph
Humidity: 92%   Direction: 190°S
Pressure: 30.06"   Gusts: NA
Location:  42.65°N, 96.87°W
Report Text: KLCG 201755Z AUTO 19008KT 7SM OVC005 00/M01 A3006 RMK AO2 T00041008 10004 20000
Loading
Personal Weather Stations






























Interactive Weather Map New forecast layout! Learn more

10-Day Weather Forecast

Advertisements
Track Severe Weather on mobile